Time;durP1;ratioP1;P1;durP2;ratioP2;P2;SDS_P1;SDS_P2;PMS_P1;PMS_P2;Temp;Humidity;BMP_temperature;BMP_pressure;BME280_temperature;BME280_humidity;BME280_pressure;Samples;Min_cycle;Max_cycle;Signal;HPM_P1;HPM_P2
2021/07/30 00:02:11;;;;;;;3.97;2.88;;;24.10;69.00;;;;;;5027514;28;20033;-67
2021/07/30 00:05:15;;;;;;;4.10;3.00;;;24.20;67.30;;;;;;5027278;28;20044;-66
2021/07/30 00:08:20;;;;;;;3.60;2.90;;;24.20;67.60;;;;;;5030145;28;20052;-67
2021/07/30 00:11:24;;;;;;;3.63;2.90;;;24.20;66.90;;;;;;5029417;28;20048;-66
2021/07/30 00:14:28;;;;;;;4.22;3.25;;;24.20;66.30;;;;;;5030036;28;20034;-65
2021/07/30 00:17:32;;;;;;;4.70;3.13;;;24.20;66.40;;;;;;5030022;28;20033;-66
2021/07/30 00:20:37;;;;;;;6.22;2.72;;;24.20;66.50;;;;;;5029501;28;20061;-65
2021/07/30 00:23:41;;;;;;;3.97;2.90;;;24.20;66.30;;;;;;5029932;28;20522;-65
2021/07/30 00:26:45;;;;;;;3.65;3.13;;;23.90;69.70;;;;;;5029920;28;20485;-65
2021/07/30 00:29:49;;;;;;;5.35;3.47;;;23.40;69.80;;;;;;5030254;28;20049;-65
2021/07/30 00:32:53;;;;;;;6.20;3.20;;;23.10;73.00;;;;;;5029925;28;20041;-65
2021/07/30 00:35:57;;;;;;;5.40;3.65;;;22.80;75.40;;;;;;5026520;28;20039;-65
2021/07/30 00:39:02;;;;;;;8.23;3.80;;;22.60;76.30;;;;;;5015893;28;20226;-66
2021/07/30 00:42:06;;;;;;;5.55;3.67;;;22.40;77.30;;;;;;5028364;28;20046;-65
2021/07/30 00:45:10;;;;;;;9.00;3.80;;;22.30;77.70;;;;;;5029535;28;20519;-65
2021/07/30 00:48:15;;;;;;;5.30;3.45;;;22.30;78.30;;;;;;5029279;28;20037;-65
2021/07/30 00:51:19;;;;;;;5.45;3.95;;;22.20;78.20;;;;;;5027805;28;20033;-65
2021/07/30 00:54:27;;;;;;;8.35;4.20;;;22.20;79.10;;;;;;5017259;28;20060;-65
2021/07/30 00:57:32;;;;;;;5.35;3.90;;;22.10;80.20;;;;;;5026881;28;20048;-65
2021/07/30 01:00:36;;;;;;;9.02;4.00;;;22.10;80.70;;;;;;5028087;28;20200;-65
2021/07/30 01:03:43;;;;;;;9.27;4.47;;;22.00;80.90;;;;;;5029943;28;20104;-65
2021/07/30 01:06:50;;;;;;;6.30;3.58;;;22.00;83.50;;;;;;5022632;28;20403;-65
2021/07/30 01:09:55;;;;;;;10.35;4.45;;;22.00;83.70;;;;;;5033293;28;20041;-66
2021/07/30 01:13:00;;;;;;;6.53;4.47;;;21.90;84.80;;;;;;5013239;28;20052;-66
2021/07/30 01:16:06;;;;;;;6.40;4.32;;;21.90;85.00;;;;;;5013246;28;20038;-65
2021/07/30 01:19:20;;;;;;;9.10;4.78;;;21.90;85.10;;;;;;5027703;28;20026;-65
2021/07/30 01:22:32;;;;;;;10.77;4.55;;;21.90;84.70;;;;;;5032626;28;20038;-65
2021/07/30 01:25:36;;;;;;;10.20;4.63;;;21.90;83.80;;;;;;5032811;28;20048;-66
2021/07/30 01:28:40;;;;;;;8.30;4.13;;;22.00;83.50;;;;;;5032341;28;20398;-66
2021/07/30 01:31:44;;;;;;;7.68;4.28;;;22.00;83.20;;;;;;5032309;28;20512;-65
2021/07/30 01:34:48;;;;;;;10.15;4.40;;;22.00;82.50;;;;;;5032820;28;20399;-65
2021/07/30 01:37:53;;;;;;;7.82;4.60;;;22.00;83.10;;;;;;5032901;28;20044;-65
2021/07/30 01:41:08;;;;;;;7.03;4.00;;;22.00;82.20;;;;;;5032406;28;20496;-65
2021/07/30 01:44:14;;;;;;;7.75;4.45;;;22.00;81.60;;;;;;5032754;28;20033;-65
2021/07/30 01:47:21;;;;;;;5.95;4.40;;;22.00;82.10;;;;;;5032476;28;20049;-65
2021/07/30 01:50:25;;;;;;;6.47;4.22;;;21.90;82.90;;;;;;5031356;28;20045;-65
2021/07/30 01:53:30;;;;;;;5.70;4.13;;;21.80;83.20;;;;;;5032393;28;20046;-65
2021/07/30 01:56:34;;;;;;;6.00;4.13;;;21.70;83.10;;;;;;5032265;28;20045;-65
2021/07/30 01:59:40;;;;;;;7.72;4.53;;;21.70;83.10;;;;;;5025847;28;20080;-65
2021/07/30 02:02:44;;;;;;;8.52;4.50;;;21.60;83.80;;;;;;5025538;28;20045;-65
2021/07/30 02:05:49;;;;;;;6.47;3.97;;;21.50;84.40;;;;;;5030846;28;20499;-65
2021/07/30 02:08:54;;;;;;;9.15;4.70;;;21.40;85.00;;;;;;5022098;28;20050;-65
2021/07/30 02:11:58;;;;;;;9.43;4.63;;;21.30;85.80;;;;;;5031659;28;20044;-65
2021/07/30 02:15:04;;;;;;;6.13;4.25;;;21.30;86.10;;;;;;5031248;28;20058;-65
2021/07/30 02:18:08;;;;;;;8.48;4.55;;;21.30;87.00;;;;;;5012477;28;20038;-65
2021/07/30 02:21:13;;;;;;;7.50;4.80;;;21.20;87.50;;;;;;5012056;28;20026;-65
2021/07/30 02:24:18;;;;;;;6.85;4.25;;;21.20;88.70;;;;;;5017250;28;20040;-65
2021/07/30 02:27:23;;;;;;;7.55;4.75;;;21.20;89.20;;;;;;5030929;28;20048;-65
2021/07/30 02:30:29;;;;;;;8.90;4.40;;;21.20;90.00;;;;;;5031064;28;20057;-65
2021/07/30 02:33:37;;;;;;;6.78;4.50;;;21.10;90.10;;;;;;5031683;28;20046;-65
2021/07/30 02:36:42;;;;;;;8.95;5.07;;;21.10;90.20;;;;;;5031220;28;20037;-65
2021/07/30 02:39:46;;;;;;;6.78;4.53;;;21.10;90.10;;;;;;5031732;28;20022;-65
2021/07/30 02:42:50;;;;;;;6.10;4.03;;;21.20;88.70;;;;;;5031400;28;20041;-66
2021/07/30 02:45:54;;;;;;;6.30;4.70;;;21.20;87.50;;;;;;5031305;28;20033;-66
2021/07/30 02:48:58;;;;;;;9.02;4.57;;;21.20;87.00;;;;;;5031565;28;20049;-65
2021/07/30 02:52:04;;;;;;;8.18;4.90;;;21.30;87.30;;;;;;5030831;28;20049;-65
2021/07/30 02:55:08;;;;;;;8.85;5.10;;;21.30;87.80;;;;;;5031185;28;20049;-65
2021/07/30 02:58:13;;;;;;;9.80;4.47;;;21.30;87.80;;;;;;5031379;28;20063;-65
2021/07/30 03:01:17;;;;;;;5.93;3.92;;;21.30;87.20;;;;;;5019704;28;20035;-66
2021/07/30 03:04:22;;;;;;;9.23;4.53;;;21.30;86.80;;;;;;5016247;28;20038;-66
2021/07/30 03:07:26;;;;;;;6.88;4.97;;;21.30;87.50;;;;;;5030853;28;20054;-65
2021/07/30 03:10:31;;;;;;;9.90;4.97;;;21.20;88.20;;;;;;5030549;28;20625;-65
2021/07/30 03:13:35;;;;;;;8.00;4.90;;;21.10;89.10;;;;;;5030864;28;20038;-65
2021/07/30 03:16:39;;;;;;;7.72;4.90;;;21.00;89.60;;;;;;5030887;28;20473;-65
2021/07/30 03:19:44;;;;;;;9.95;4.85;;;21.00;90.10;;;;;;5011100;28;20326;-65
2021/07/30 03:22:49;;;;;;;7.68;4.70;;;20.80;90.40;;;;;;5013653;28;20389;-65
2021/07/30 03:25:53;;;;;;;9.13;4.68;;;20.70;90.90;;;;;;5025695;28;20037;-65
2021/07/30 03:28:57;;;;;;;7.75;5.15;;;20.60;91.30;;;;;;5025562;28;20038;-66
2021/07/30 03:32:01;;;;;;;8.50;5.07;;;20.40;91.70;;;;;;5017727;28;20045;-65
2021/07/30 03:35:05;;;;;;;7.82;5.15;;;20.30;92.60;;;;;;5028331;28;20029;-66
2021/07/30 03:38:09;;;;;;;11.25;5.47;;;20.30;93.30;;;;;;5029443;28;20044;-66
2021/07/30 03:41:13;;;;;;;8.30;4.82;;;20.10;93.60;;;;;;5029283;28;20041;-65
2021/07/30 03:44:17;;;;;;;11.38;5.15;;;20.10;93.60;;;;;;5030104;28;20057;-65
2021/07/30 03:47:21;;;;;;;6.82;4.82;;;20.10;93.80;;;;;;5017822;28;20395;-65
2021/07/30 03:50:26;;;;;;;11.13;5.90;;;20.10;93.40;;;;;;5026044;28;20064;-65
2021/07/30 03:53:30;;;;;;;8.20;5.28;;;20.10;94.30;;;;;;5027378;28;20048;-66
2021/07/30 03:56:37;;;;;;;12.38;5.78;;;20.00;95.00;;;;;;5010481;28;20038;-66
2021/07/30 03:59:41;;;;;;;7.93;5.25;;;20.00;95.30;;;;;;5025819;28;20265;-65
2021/07/30 04:02:45;;;;;;;8.02;5.80;;;19.90;95.70;;;;;;5030079;28;20033;-65
2021/07/30 04:05:48;;;;;;;10.73;6.60;;;19.90;96.20;;;;;;5022497;28;20049;-65
2021/07/30 04:08:52;;;;;;;10.88;6.00;;;19.90;96.80;;;;;;5023753;28;20032;-65
2021/07/30 04:11:58;;;;;;;9.30;6.00;;;20.00;96.90;;;;;;5018978;28;20037;-66
2021/07/30 04:15:02;;;;;;;10.00;5.28;;;20.00;96.60;;;;;;5018869;28;20057;-66
2021/07/30 04:18:07;;;;;;;13.80;5.60;;;20.00;96.40;;;;;;5024158;28;20037;-65
2021/07/30 04:21:11;;;;;;;11.00;5.25;;;20.10;96.40;;;;;;5023022;28;20040;-65
2021/07/30 04:24:16;;;;;;;9.82;5.45;;;20.10;96.40;;;;;;5019925;28;20036;-66
2021/07/30 04:27:22;;;;;;;10.75;5.82;;;20.20;96.40;;;;;;5028170;28;20056;-65
2021/07/30 04:30:26;;;;;;;12.00;5.22;;;20.20;96.30;;;;;;5028462;28;20045;-65
2021/07/30 04:33:33;;;;;;;7.93;4.95;;;20.20;96.20;;;;;;5022856;28;20048;-66
2021/07/30 04:36:38;;;;;;;8.90;5.20;;;20.30;96.20;;;;;;5029006;28;20046;-66
2021/07/30 04:39:42;;;;;;;8.20;5.20;;;20.30;96.20;;;;;;5033599;28;20397;-65
2021/07/30 04:42:46;;;;;;;10.68;5.35;;;20.40;96.50;;;;;;5027962;28;20479;-65
2021/07/30 04:45:51;;;;;;;10.02;5.53;;;20.50;96.50;;;;;;5031638;28;20040;-65
2021/07/30 04:48:54;;;;;;;18.38;5.90;;;20.60;96.90;;;;;;5031249;28;20491;-65
2021/07/30 04:52:00;;;;;;;9.80;5.40;;;20.70;97.10;;;;;;5030928;28;20040;-67
2021/07/30 04:55:04;;;;;;;9.23;5.00;;;20.70;97.40;;;;;;5032405;28;20037;-66
2021/07/30 04:58:08;;;;;;;9.52;5.18;;;21.00;97.50;;;;;;5032827;28;20033;-65
2021/07/30 05:01:12;;;;;;;10.15;5.18;;;23.00;95.10;;;;;;5030881;28;20050;-66
2021/07/30 05:04:18;;;;;;;9.27;4.78;;;24.90;92.20;;;;;;5026037;28;20507;-65
2021/07/30 05:07:23;;;;;;;10.88;5.20;;;26.00;90.00;;;;;;5030409;28;20045;-65
2021/07/30 05:10:27;;;;;;;11.43;5.00;;;26.90;87.70;;;;;;5032311;28;20052;-66
2021/07/30 05:13:31;;;;;;;10.15;5.03;;;28.30;84.80;;;;;;5033115;28;20495;-66
2021/07/30 05:16:35;;;;;;;7.95;5.28;;;28.80;81.60;;;;;;5030703;28;20064;-66
2021/07/30 05:19:39;;;;;;;9.65;4.72;;;29.10;80.30;;;;;;5025858;28;20037;-66
2021/07/30 05:22:43;;;;;;;7.55;4.55;;;29.80;79.10;;;;;;5031240;28;20176;-66
2021/07/30 05:25:53;;;;;;;7.43;4.70;;;30.50;77.90;;;;;;5034006;28;20036;-66
2021/07/30 05:28:57;;;;;;;9.45;4.15;;;30.10;75.90;;;;;;5033475;28;20034;-66
2021/07/30 05:32:01;;;;;;;8.13;4.30;;;30.60;75.40;;;;;;5032873;28;20061;-66
2021/07/30 05:35:06;;;;;;;10.60;4.55;;;30.90;74.50;;;;;;5032092;28;20056;-66
2021/07/30 05:38:10;;;;;;;9.13;4.55;;;31.30;74.30;;;;;;5029813;28;20040;-66
2021/07/30 05:41:16;;;;;;;7.88;4.15;;;31.00;73.80;;;;;;5042726;28;20511;-67
2021/07/30 05:44:20;;;;;;;8.25;4.07;;;31.00;72.60;;;;;;5031905;28;20120;-67
2021/07/30 05:47:24;;;;;;;6.78;4.53;;;30.50;73.10;;;;;;5032665;28;20511;-66
2021/07/30 05:50:28;;;;;;;6.75;4.47;;;30.90;73.00;;;;;;5026628;28;20056;-67
2021/07/30 05:53:32;;;;;;;6.07;4.35;;;30.50;73.00;;;;;;5027610;28;20499;-66
2021/07/30 05:56:36;;;;;;;5.50;3.90;;;30.30;73.20;;;;;;5032020;28;20044;-66
2021/07/30 05:59:40;;;;;;;10.73;4.63;;;30.70;72.60;;;;;;5031166;28;20492;-67
2021/07/30 06:02:44;;;;;;;8.05;4.38;;;30.50;72.00;;;;;;5029750;28;20045;-66
2021/07/30 06:05:48;;;;;;;7.57;4.72;;;30.70;72.00;;;;;;5011831;28;20053;-66
2021/07/30 06:08:52;;;;;;;8.60;4.07;;;30.40;71.50;;;;;;5012284;28;20041;-66
2021/07/30 06:11:58;;;;;;;6.47;4.28;;;30.10;72.80;;;;;;5030735;28;20033;-66
2021/07/30 06:15:02;;;;;;;14.20;4.25;;;30.70;72.10;;;;;;5027769;28;20396;-66
2021/07/30 06:18:07;;;;;;;8.88;4.35;;;31.70;70.80;;;;;;5027297;28;20036;-67
2021/07/30 06:21:11;;;;;;;8.90;3.97;;;32.00;69.80;;;;;;5021063;28;20503;-67
2021/07/30 06:24:16;;;;;;;7.85;4.03;;;31.20;69.50;;;;;;5029786;28;20053;-67
2021/07/30 06:27:21;;;;;;;7.80;4.30;;;32.20;69.20;;;;;;5014462;28;20069;-66
2021/07/30 06:30:25;;;;;;;6.03;3.63;;;31.50;69.50;;;;;;5022197;28;20063;-66
2021/07/30 06:33:29;;;;;;;5.40;4.22;;;29.60;70.70;;;;;;5027495;28;20029;-66
2021/07/30 06:36:33;;;;;;;7.85;3.83;;;28.40;73.10;;;;;;5024544;28;20434;-66
2021/07/30 06:39:40;;;;;;;7.95;4.10;;;29.40;73.40;;;;;;5022278;28;20035;-66
2021/07/30 06:42:44;;;;;;;4.72;3.50;;;30.30;72.10;;;;;;5025658;28;20029;-66
2021/07/30 06:45:48;;;;;;;5.57;4.00;;;31.70;70.60;;;;;;5024141;28;20029;-65
2021/07/30 06:48:52;;;;;;;5.80;3.65;;;30.50;71.00;;;;;;5026255;28;20041;-66
2021/07/30 06:51:56;;;;;;;7.50;4.43;;;30.50;71.50;;;;;;5025095;28;20620;-66
2021/07/30 06:55:00;;;;;;;4.18;3.75;;;29.00;72.10;;;;;;5031075;28;20051;-66
2021/07/30 06:58:04;;;;;;;6.35;4.25;;;30.50;70.50;;;;;;5029201;28;20029;-67
2021/07/30 07:01:08;;;;;;;7.43;3.70;;;28.90;73.10;;;;;;5027735;28;20033;-65
2021/07/30 07:04:14;;;;;;;10.50;4.30;;;28.50;72.90;;;;;;5032239;28;20046;-65
2021/07/30 07:07:18;;;;;;;8.50;4.18;;;29.30;73.50;;;;;;5032133;28;20051;-66
2021/07/30 07:10:22;;;;;;;5.90;3.75;;;30.00;72.70;;;;;;5024816;28;20049;-66
2021/07/30 07:13:26;;;;;;;21.80;4.38;;;29.90;71.20;;;;;;5026555;28;20041;-66
2021/07/30 07:16:33;;;;;;;6.97;3.65;;;29.90;72.40;;;;;;5022592;28;20396;-66
2021/07/30 07:19:37;;;;;;;10.90;3.50;;;31.20;70.10;;;;;;5025712;28;20040;-66
2021/07/30 07:22:42;;;;;;;4.38;3.42;;;31.70;70.60;;;;;;5025504;28;20510;-66
2021/07/30 07:25:45;;;;;;;6.30;3.88;;;33.30;68.30;;;;;;5024532;28;20036;-66
2021/07/30 07:28:50;;;;;;;7.47;3.80;;;34.40;67.00;;;;;;5024405;28;20060;-67
2021/07/30 07:31:53;;;;;;;6.32;3.60;;;33.90;66.70;;;;;;5026267;28;20041;-66
2021/07/30 07:35:00;;;;;;;7.97;3.38;;;33.50;66.90;;;;;;5028110;28;20033;-66
2021/07/30 07:38:06;;;;;;;7.70;3.78;;;34.60;66.70;;;;;;5029155;28;20515;-66
2021/07/30 07:41:11;;;;;;;9.85;3.80;;;33.60;66.80;;;;;;5010019;28;20480;-66
2021/07/30 07:44:18;;;;;;;11.93;4.30;;;35.00;65.60;;;;;;5017153;28;20498;-66
2021/07/30 07:47:22;;;;;;;6.70;3.75;;;35.60;64.80;;;;;;5031082;28;20057;-67
2021/07/30 07:50:26;;;;;;;9.05;3.75;;;36.10;64.70;;;;;;5029930;28;20045;-67
2021/07/30 07:53:36;;;;;;;8.70;3.47;;;36.50;64.40;;;;;;5031237;28;20050;-66
2021/07/30 07:56:40;;;;;;;8.35;3.70;;;37.80;63.00;;;;;;5023940;28;20401;-66
2021/07/30 07:59:44;;;;;;;10.27;4.10;;;38.30;61.90;;;;;;5021621;28;20030;-66
2021/07/30 08:02:48;;;;;;;7.88;3.72;;;35.30;63.40;;;;;;5024974;28;20032;-67
2021/07/30 08:05:52;;;;;;;7.85;4.07;;;36.60;63.70;;;;;;5015427;28;20050;-67
2021/07/30 08:08:58;;;;;;;7.43;3.85;;;37.10;63.60;;;;;;5023331;28;20054;-67
2021/07/30 08:12:04;;;;;;;9.05;3.90;;;37.80;62.80;;;;;;5017561;28;20506;-66
2021/07/30 08:15:09;;;;;;;10.88;3.60;;;37.10;63.40;;;;;;5023043;28;20044;-67
2021/07/30 08:18:13;;;;;;;6.75;3.90;;;38.40;62.90;;;;;;5022892;28;20044;-66
2021/07/30 08:21:17;;;;;;;8.23;4.05;;;38.90;61.70;;;;;;5022855;28;20506;-66
2021/07/30 08:24:23;;;;;;;13.32;3.90;;;39.00;62.10;;;;;;5025455;28;20049;-66
2021/07/30 08:27:27;;;;;;;5.38;3.80;;;39.80;61.70;;;;;;5027362;28;20057;-67
2021/07/30 08:30:31;;;;;;;7.20;3.58;;;40.40;60.80;;;;;;5025283;28;20038;-67
2021/07/30 08:33:36;;;;;;;12.82;3.83;;;36.90;62.20;;;;;;5019956;28;20034;-67
2021/07/30 08:36:41;;;;;;;6.95;3.40;;;38.10;62.90;;;;;;5021994;28;20040;-67
2021/07/30 08:39:45;;;;;;;8.15;3.95;;;38.40;62.40;;;;;;5022002;28;20045;-66
2021/07/30 08:42:51;;;;;;;7.10;3.65;;;39.30;62.20;;;;;;5025991;28;20052;-68
2021/07/30 08:45:57;;;;;;;9.15;3.55;;;41.80;59.90;;;;;;5011396;28;20102;-67
2021/07/30 08:49:01;;;;;;;5.28;3.22;;;41.40;58.40;;;;;;5018260;28;20392;-66
2021/07/30 08:52:10;;;;;;;11.70;3.47;;;42.30;57.30;;;;;;5024573;28;20037;-67
2021/07/30 08:55:16;;;;;;;8.68;2.97;;;41.80;58.60;;;;;;5010821;28;20444;-66
2021/07/30 08:58:20;;;;;;;5.35;2.80;;;42.90;57.00;;;;;;5028347;28;20036;-67
2021/07/30 09:01:25;;;;;;;8.07;3.00;;;43.50;56.30;;;;;;5016179;28;20054;-65
2021/07/30 09:04:30;;;;;;;11.65;3.53;;;42.90;55.10;;;;;;5024568;28;20026;-67
2021/07/30 09:07:43;;;;;;;9.10;2.78;;;42.90;55.30;;;;;;5021956;28;20391;-66
2021/07/30 09:10:47;;;;;;;6.57;2.60;;;42.90;53.10;;;;;;5022615;28;20056;-67
2021/07/30 09:13:51;;;;;;;5.70;2.58;;;40.90;52.30;;;;;;5026271;28;20060;-65
2021/07/30 09:16:56;;;;;;;8.20;2.67;;;42.40;52.50;;;;;;5029857;28;20354;-68
2021/07/30 09:20:03;;;;;;;12.15;2.40;;;44.90;52.40;;;;;;5023617;28;20030;-65
2021/07/30 09:23:18;;;;;;;4.85;3.13;;;46.60;51.00;;;;;;5020008;28;20040;-65
2021/07/30 09:26:47;;;;;;;5.55;2.50;;;46.10;50.30;;;;;;5037706;28;20041;-65
2021/07/30 09:30:12;;;;;;;5.75;2.75;;;46.00;50.90;;;;;;5042414;28;20042;-65
2021/07/30 09:33:26;;;;;;;5.60;2.65;;;45.20;50.70;;;;;;5029614;28;20033;-67
2021/07/30 09:37:07;;;;;;;8.90;3.15;;;43.40;51.10;;;;;;5014029;28;20049;-67
2021/07/30 09:40:21;;;;;;;6.18;2.90;;;40.70;55.00;;;;;;5012497;28;20042;-68
2021/07/30 09:43:26;;;;;;;6.32;2.67;;;40.80;55.00;;;;;;5022432;28;20045;-68
2021/07/30 09:46:31;;;;;;;6.53;3.00;;;43.70;53.50;;;;;;5025580;28;20750;-68
2021/07/30 09:49:55;;;;;;;7.90;3.00;;;44.80;52.50;;;;;;5020316;28;20487;-65
2021/07/30 09:53:03;;;;;;;7.72;2.83;;;46.70;51.70;;;;;;5030443;28;20041;-65
2021/07/30 09:56:07;;;;;;;6.07;2.70;;;48.50;50.50;;;;;;5028990;28;20048;-66
2021/07/30 09:59:12;;;;;;;16.08;3.30;;;50.10;49.70;;;;;;5021189;28;20041;-65
2021/07/30 10:02:19;;;;;;;11.73;2.70;;;50.40;48.60;;;;;;5029729;28;20040;-66
2021/07/30 10:05:24;;;;;;;5.80;2.75;;;50.70;48.50;;;;;;5030901;28;20048;-65
2021/07/30 10:08:30;;;;;;;7.47;2.70;;;45.80;49.40;;;;;;5023712;28;20044;-66
2021/07/30 10:11:38;;;;;;;3.65;2.10;;;48.10;50.10;;;;;;5022052;28;20033;-66
2021/07/30 10:14:44;;;;;;;7.57;2.50;;;50.20;48.60;;;;;;5018402;28;20058;-66
2021/07/30 10:17:52;;;;;;;6.65;2.50;;;51.10;48.10;;;;;;5015135;28;20038;-66
2021/07/30 10:21:01;;;;;;;5.13;2.67;;;50.40;47.50;;;;;;5027939;28;20042;-67
2021/07/30 10:24:07;;;;;;;4.82;2.25;;;50.80;48.10;;;;;;5022499;28;20042;-66
2021/07/30 10:27:14;;;;;;;7.45;2.95;;;50.50;48.20;;;;;;5028621;28;20033;-65
2021/07/30 10:30:19;;;;;;;5.40;2.33;;;48.80;48.80;;;;;;5007323;28;20030;-66
2021/07/30 10:33:36;;;;;;;3.03;2.30;;;49.60;48.60;;;;;;5019659;28;20044;-65
2021/07/30 10:36:42;;;;;;;14.38;4.03;;;46.20;50.40;;;;;;5010731;28;20057;-66
2021/07/30 10:40:17;;;;;;;5.90;3.50;;;45.70;50.00;;;;;;5024488;28;20419;-68
2021/07/30 10:43:22;;;;;;;5.30;3.10;;;41.90;52.00;;;;;;5025618;28;20052;-65
2021/07/30 10:46:28;;;;;;;4.32;2.85;;;45.00;51.90;;;;;;5021357;28;20053;-66
2021/07/30 10:49:41;;;;;;;3.65;2.60;;;47.50;49.70;;;;;;5019406;28;20907;-65
2021/07/30 10:52:45;;;;;;;5.20;2.92;;;49.10;49.10;;;;;;5015261;28;20045;-66
2021/07/30 10:55:51;;;;;;;4.60;2.40;;;49.30;48.70;;;;;;5019623;28;20045;-66
2021/07/30 10:59:04;;;;;;;7.18;2.58;;;49.80;48.40;;;;;;5014565;28;20050;-65
2021/07/30 11:02:09;;;;;;;5.90;2.50;;;51.40;47.80;;;;;;5024062;28;20240;-66
2021/07/30 11:05:13;;;;;;;4.57;2.65;;;51.70;47.20;;;;;;5016015;28;20050;-66
2021/07/30 11:08:18;;;;;;;4.40;2.63;;;52.20;46.80;;;;;;5012225;28;20038;-65
2021/07/30 11:11:43;;;;;;;5.15;2.67;;;52.60;46.30;;;;;;5011410;28;20311;-66
2021/07/30 11:14:48;;;;;;;8.10;2.65;;;52.00;46.30;;;;;;5011331;28;20030;-66
2021/07/30 11:17:53;;;;;;;4.05;2.40;;;51.80;46.80;;;;;;5012252;28;20030;-65
2021/07/30 11:20:58;;;;;;;5.15;2.70;;;51.20;46.60;;;;;;5012133;28;20759;-66
2021/07/30 11:24:04;;;;;;;4.82;2.55;;;50.70;46.60;;;;;;5016581;28;20061;-66
2021/07/30 11:27:12;;;;;;;5.25;2.40;;;47.60;47.00;;;;;;5018802;28;20045;-64
2021/07/30 11:30:16;;;;;;;3.05;2.33;;;49.60;46.60;;;;;;4997503;28;20045;-65
2021/07/30 11:33:21;;;;;;;7.20;2.40;;;49.90;46.20;;;;;;4998877;28;20088;-65
2021/07/30 11:36:25;;;;;;;5.63;2.55;;;50.30;46.40;;;;;;5013442;28;20049;-65
2021/07/30 11:39:33;;;;;;;9.13;2.70;;;50.40;45.50;;;;;;5009016;28;20544;-64
2021/07/30 11:42:39;;;;;;;3.15;2.58;;;49.50;46.20;;;;;;5019761;28;20049;-65
2021/07/30 11:45:44;;;;;;;6.00;2.50;;;48.40;46.20;;;;;;5016463;28;20038;-65
2021/07/30 11:48:50;;;;;;;4.50;2.55;;;47.70;46.70;;;;;;5010497;28;20393;-68
2021/07/30 11:51:54;;;;;;;5.95;2.85;;;44.90;48.20;;;;;;5018781;28;20040;-65
2021/07/30 11:55:13;;;;;;;12.43;3.20;;;45.50;48.20;;;;;;5013523;28;20507;-65
2021/07/30 11:58:17;;;;;;;13.52;2.95;;;47.20;47.60;;;;;;5007329;28;20056;-64
2021/07/30 12:01:21;;;;;;;8.75;2.78;;;47.80;46.80;;;;;;5017379;28;20044;-65
2021/07/30 12:04:25;;;;;;;3.10;2.60;;;47.80;46.50;;;;;;5011325;28;20052;-64
2021/07/30 12:07:38;;;;;;;5.68;3.00;;;47.70;46.30;;;;;;5012404;28;20048;-65
2021/07/30 12:10:43;;;;;;;7.63;2.72;;;47.10;46.60;;;;;;5016604;28;20036;-65
2021/07/30 12:13:48;;;;;;;4.28;2.85;;;47.20;47.00;;;;;;5017846;28;20045;-65
2021/07/30 12:16:56;;;;;;;6.25;3.30;;;47.20;46.90;;;;;;5014313;28;20059;-65
2021/07/30 12:20:01;;;;;;;5.20;2.70;;;46.40;46.90;;;;;;5007740;28;20049;-67
2021/07/30 12:23:09;;;;;;;3.75;3.08;;;44.10;48.80;;;;;;5020144;28;20063;-66
2021/07/30 12:26:35;;;;;;;7.20;3.10;;;40.10;50.80;;;;;;5017244;28;20057;-66
2021/07/30 12:29:45;;;;;;;4.78;3.47;;;37.70;54.40;;;;;;5016722;28;20404;-67
2021/07/30 12:32:49;;;;;;;10.70;2.97;;;38.20;54.10;;;;;;5013377;28;20040;-66
2021/07/30 12:36:11;;;;;;;6.68;3.78;;;40.20;53.30;;;;;;5010377;28;20045;-66
2021/07/30 12:39:16;;;;;;;3.83;2.70;;;41.20;52.00;;;;;;5009784;28;20041;-66
2021/07/30 12:42:26;;;;;;;8.50;3.10;;;42.00;50.70;;;;;;5010572;28;20044;-66
2021/07/30 12:45:41;;;;;;;20.17;4.00;;;42.30;50.60;;;;;;5008299;28;20113;-65
2021/07/30 12:48:48;;;;;;;14.07;4.00;;;42.90;50.50;;;;;;5015791;28;20093;-65
2021/07/30 12:51:53;;;;;;;5.38;3.65;;;42.80;50.40;;;;;;5011387;28;20056;-66
2021/07/30 12:55:03;;;;;;;6.53;3.28;;;42.40;50.90;;;;;;5010214;28;20037;-67
2021/07/30 12:58:10;;;;;;;8.07;3.42;;;42.30;51.30;;;;;;5010966;28;20053;-66
2021/07/30 13:01:15;;;;;;;13.50;3.50;;;42.10;51.40;;;;;;5021014;28;20045;-66
2021/07/30 13:04:19;;;;;;;9.07;3.50;;;42.20;51.70;;;;;;5019807;28;20036;-66
2021/07/30 13:07:26;;;;;;;7.28;3.40;;;42.30;51.70;;;;;;5017646;28;20380;-66
2021/07/30 13:10:31;;;;;;;9.55;3.60;;;41.90;51.20;;;;;;5013024;28;20048;-66
2021/07/30 13:13:37;;;;;;;12.32;3.80;;;42.50;51.60;;;;;;5021288;28;20045;-66
2021/07/30 13:16:41;;;;;;;4.10;3.33;;;42.10;51.90;;;;;;5021811;28;20048;-66
2021/07/30 13:19:45;;;;;;;6.88;3.80;;;38.90;53.20;;;;;;5013061;28;20375;-65
2021/07/30 13:22:51;;;;;;;5.20;3.55;;;39.50;53.70;;;;;;5020291;28;20044;-66
2021/07/30 13:25:56;;;;;;;6.47;3.65;;;39.20;53.90;;;;;;5017638;28;20057;-67
2021/07/30 13:29:00;;;;;;;14.25;4.32;;;37.20;56.40;;;;;;5013379;28;20048;-66
2021/07/30 13:32:04;;;;;;;12.85;3.88;;;38.50;56.30;;;;;;5021444;28;20047;-67
2021/07/30 13:35:10;;;;;;;4.80;3.17;;;39.40;55.80;;;;;;5023137;28;20052;-67
2021/07/30 13:38:15;;;;;;;10.40;3.33;;;39.80;54.50;;;;;;5029912;28;20499;-66
2021/07/30 13:41:20;;;;;;;7.60;3.08;;;38.40;54.00;;;;;;5022761;28;20277;-67
2021/07/30 13:44:25;;;;;;;8.50;3.35;;;39.50;54.40;;;;;;5032679;28;20048;-67
2021/07/30 13:47:29;;;;;;;8.93;3.15;;;39.40;53.70;;;;;;5026280;28;20384;-66
2021/07/30 13:50:35;;;;;;;4.75;3.50;;;39.60;54.10;;;;;;5032678;28;20049;-67
2021/07/30 13:53:39;;;;;;;22.80;4.15;;;39.50;54.00;;;;;;5031988;28;20074;-67
2021/07/30 13:56:43;;;;;;;8.48;3.30;;;40.00;54.50;;;;;;5030228;28;20400;-66
2021/07/30 13:59:48;;;;;;;4.05;2.78;;;39.80;54.20;;;;;;5015339;28;20389;-66
2021/07/30 14:02:53;;;;;;;8.32;3.47;;;39.90;53.40;;;;;;5018967;28;20052;-68
2021/07/30 14:05:57;;;;;;;5.75;3.88;;;39.90;54.10;;;;;;5018611;28;20049;-66
2021/07/30 14:09:01;;;;;;;10.45;3.65;;;39.80;54.30;;;;;;5011654;28;20033;-66
2021/07/30 14:12:07;;;;;;;15.75;3.90;;;39.90;54.10;;;;;;5028577;28;20040;-66
2021/07/30 14:15:13;;;;;;;22.85;3.92;;;40.00;54.00;;;;;;5032600;28;20101;-65
2021/07/30 14:18:18;;;;;;;19.98;4.00;;;40.00;54.00;;;;;;5028686;28;20335;-66
2021/07/30 14:21:23;;;;;;;17.10;4.05;;;39.60;54.60;;;;;;5029694;28;20048;-65
2021/07/30 14:24:27;;;;;;;20.65;3.85;;;39.50;54.80;;;;;;5012470;28;20041;-66
2021/07/30 14:27:34;;;;;;;15.10;4.05;;;39.20;55.40;;;;;;5012104;28;20040;-66
2021/07/30 14:30:39;;;;;;;7.90;3.88;;;38.30;55.20;;;;;;5021713;28;20064;-66
2021/07/30 14:33:43;;;;;;;10.00;4.05;;;37.90;56.00;;;;;;5028829;28;20044;-67
2021/07/30 14:36:47;;;;;;;9.30;3.95;;;38.30;56.00;;;;;;5028330;28;20041;-66
2021/07/30 14:39:51;;;;;;;14.32;4.75;;;38.50;55.90;;;;;;5014176;28;20044;-67
2021/07/30 14:42:57;;;;;;;7.10;4.22;;;38.20;55.80;;;;;;5018739;28;20072;-67
2021/07/30 14:46:01;;;;;;;4.63;2.88;;;37.90;56.50;;;;;;5020652;28;20045;-66
2021/07/30 14:49:05;;;;;;;6.63;3.63;;;38.00;55.50;;;;;;5015241;28;20384;-66
2021/07/30 14:52:10;;;;;;;8.82;3.60;;;37.80;55.50;;;;;;5017194;28;20041;-65
2021/07/30 14:55:15;;;;;;;5.43;3.20;;;36.70;55.60;;;;;;5030268;28;20052;-66
2021/07/30 14:58:18;;;;;;;5.55;3.05;;;37.00;54.90;;;;;;5031129;28;20045;-65
2021/07/30 15:01:23;;;;;;;7.35;2.80;;;37.20;54.50;;;;;;5021076;28;20041;-66
2021/07/30 15:04:27;;;;;;;9.55;3.20;;;36.50;55.30;;;;;;5013386;28;20519;-66
2021/07/30 15:07:32;;;;;;;6.53;3.65;;;36.60;56.90;;;;;;5011970;28;20487;-66
2021/07/30 15:10:43;;;;;;;9.38;3.38;;;36.70;56.20;;;;;;5018146;28;20040;-67
2021/07/30 15:13:48;;;;;;;18.48;4.25;;;36.90;56.40;;;;;;5019527;28;20381;-67
2021/07/30 15:16:55;;;;;;;4.68;3.20;;;36.80;56.60;;;;;;5023704;28;20044;-67
2021/07/30 15:19:59;;;;;;;5.25;3.45;;;36.90;56.40;;;;;;5019127;28;20387;-66
2021/07/30 15:23:03;;;;;;;6.70;3.45;;;37.00;56.20;;;;;;5016326;28;20057;-67
2021/07/30 15:26:08;;;;;;;7.68;3.65;;;36.90;56.50;;;;;;5020604;28;20044;-67
2021/07/30 15:29:13;;;;;;;4.43;3.40;;;35.70;57.10;;;;;;5000877;28;20052;-67
2021/07/30 15:32:18;;;;;;;4.88;3.20;;;35.60;58.00;;;;;;5004021;28;20060;-68
2021/07/30 15:35:23;;;;;;;6.55;3.65;;;35.60;57.90;;;;;;5021645;28;20040;-67
2021/07/30 15:38:27;;;;;;;5.05;3.15;;;36.00;57.30;;;;;;5030132;28;20044;-67
2021/07/30 15:41:32;;;;;;;4.70;3.03;;;35.90;56.30;;;;;;5025613;28;20040;-67
2021/07/30 15:44:37;;;;;;;5.97;3.08;;;35.80;56.70;;;;;;5029730;28;20048;-67
2021/07/30 15:47:42;;;;;;;7.15;3.90;;;35.80;57.00;;;;;;5007221;28;20045;-67
2021/07/30 15:50:46;;;;;;;6.30;3.22;;;35.90;57.30;;;;;;5011229;28;20048;-67
2021/07/30 15:53:52;;;;;;;6.32;3.40;;;35.40;57.70;;;;;;5022895;28;20044;-67
2021/07/30 15:56:57;;;;;;;9.82;3.28;;;35.50;57.80;;;;;;5021624;28;20053;-67
2021/07/30 16:00:03;;;;;;;7.20;2.95;;;35.50;57.60;;;;;;5021680;28;20060;-67
2021/07/30 16:03:16;;;;;;;5.10;3.40;;;35.50;57.40;;;;;;5010533;28;20049;-67
2021/07/30 16:06:20;;;;;;;6.60;3.33;;;35.60;56.20;;;;;;5010202;28;20064;-68